Ben Lomond, California
Current Conditions -  °F | °C
As of 9:22 AM on Saturday 20 Dec 2014 (Local Time) from KWVI Reporting Station
Overcast Overcast  
Wind Chill: 58°   Ceiling: 500
Heat Index: 58°   Visibility: 10mi
Dew Point: 58°   Wind: 0mph
Humidity: 100%   Direction: NA
Pressure: 30.23"   Gusts: NA
Location:  37.09°N, 122.09°W
Report Text: KWVI 201722Z AUTO 00000KT 10SM OVC005 14/14 A3023 RMK AO2 CIG 004V009 T01440144 $
Loading
Personal Weather Stations






























Interactive Weather Map New forecast layout! Learn more

10-Day Weather Forecast

Advertisements
Track Severe Weather on mobile